createdAt,value
2022-11-10T00:00:23.984Z,0.00
2022-11-10T00:01:23.968Z,0.00
2022-11-10T00:02:24.003Z,0.00
2022-11-10T00:03:24.286Z,0.00
2022-11-10T00:04:24.002Z,0.00
2022-11-10T00:05:23.949Z,0.00
2022-11-10T00:06:23.953Z,0.00
2022-11-10T00:07:23.944Z,0.00
2022-11-10T00:08:23.957Z,0.00
2022-11-10T00:09:23.934Z,0.00
2022-11-10T00:10:23.904Z,0.00
2022-11-10T00:11:23.902Z,0.00
2022-11-10T00:12:23.884Z,0.00
2022-11-10T00:13:24.200Z,0.00
2022-11-10T00:14:23.905Z,0.00
2022-11-10T00:15:23.903Z,0.00
2022-11-10T00:16:23.863Z,0.00
2022-11-10T00:17:23.853Z,0.00
2022-11-10T00:18:23.851Z,0.00
2022-11-10T00:19:23.845Z,0.00
2022-11-10T00:20:23.857Z,0.00
2022-11-10T00:21:23.821Z,0.00
2022-11-10T00:22:26.033Z,0.00
2022-11-10T00:23:24.158Z,0.00
2022-11-10T00:24:23.796Z,0.00
2022-11-10T00:25:23.786Z,0.00
2022-11-10T00:26:23.797Z,0.00
2022-11-10T00:27:23.774Z,0.00
2022-11-10T00:28:23.826Z,0.00
2022-11-10T00:29:23.789Z,0.00
2022-11-10T00:30:23.758Z,0.00
2022-11-10T00:31:23.786Z,0.00
2022-11-10T00:32:23.731Z,0.00
2022-11-10T00:33:24.004Z,0.00
2022-11-10T00:34:23.756Z,0.00
2022-11-10T00:35:23.715Z,0.00
2022-11-10T00:36:23.694Z,0.00
2022-11-10T00:37:23.689Z,0.00
2022-11-10T00:38:23.707Z,0.00
2022-11-10T00:39:23.679Z,0.00
2022-11-10T00:40:23.676Z,0.00
2022-11-10T00:41:23.664Z,0.00
2022-11-10T00:42:23.648Z,0.00
2022-11-10T00:43:26.480Z,0.00
2022-11-10T00:44:23.664Z,0.00
2022-11-10T00:45:23.632Z,0.00
2022-11-10T00:46:23.629Z,0.00
2022-11-10T00:47:23.607Z,0.00
2022-11-10T00:48:23.611Z,0.00
2022-11-10T00:49:23.596Z,0.00
2022-11-10T00:50:23.609Z,0.00
2022-11-10T00:51:23.610Z,0.00
2022-11-10T00:52:23.574Z,0.00
2022-11-10T00:53:23.956Z,0.00
2022-11-10T00:54:23.562Z,0.00
2022-11-10T00:55:23.557Z,0.00
2022-11-10T00:56:23.558Z,0.00
2022-11-10T00:57:23.533Z,0.00
2022-11-10T00:58:23.506Z,0.00
2022-11-10T00:59:23.501Z,0.00
2022-11-10T01:00:23.525Z,0.00
2022-11-10T01:01:23.534Z,0.00
2022-11-10T01:02:23.478Z,0.00
2022-11-10T01:03:24.474Z,0.00
2022-11-10T01:04:23.529Z,0.00
2022-11-10T01:05:23.455Z,0.00
2022-11-10T01:06:23.470Z,0.00
2022-11-10T01:07:23.438Z,0.00
2022-11-10T01:08:23.426Z,0.00
2022-11-10T01:09:24.112Z,0.00
2022-11-10T01:10:23.413Z,0.00
2022-11-10T01:11:23.411Z,0.00
2022-11-10T01:12:23.425Z,0.00
2022-11-10T01:13:23.627Z,0.00
2022-11-10T01:14:23.388Z,0.00
2022-11-10T01:15:27.607Z,0.00
2022-11-10T01:16:23.365Z,0.00
2022-11-10T01:17:23.354Z,0.00
2022-11-10T01:18:23.368Z,0.00
2022-11-10T01:19:23.329Z,0.00
2022-11-10T01:20:23.340Z,0.00
2022-11-10T01:21:23.320Z,0.00
2022-11-10T01:22:23.307Z,0.00
2022-11-10T01:23:23.721Z,0.00
2022-11-10T01:24:23.294Z,0.00
2022-11-10T01:25:23.296Z,0.00
2022-11-10T01:26:23.289Z,0.00
2022-11-10T01:27:23.273Z,0.00
2022-11-10T01:28:23.279Z,0.00
2022-11-10T01:29:23.283Z,0.00
2022-11-10T01:30:23.271Z,0.00
2022-11-10T01:31:23.298Z,0.00
2022-11-10T01:32:23.234Z,0.00
2022-11-10T01:33:23.665Z,0.00
2022-11-10T01:34:23.217Z,0.00
2022-11-10T01:35:23.213Z,0.00
2022-11-10T01:36:23.211Z,0.00
2022-11-10T01:37:23.210Z,0.00
2022-11-10T01:38:23.202Z,0.00
2022-11-10T01:39:23.166Z,0.00
2022-11-10T01:40:23.257Z,0.00
2022-11-10T01:41:23.169Z,0.00
2022-11-10T01:42:23.137Z,0.00
2022-11-10T01:43:23.551Z,0.00
2022-11-10T01:44:23.153Z,0.00
2022-11-10T01:45:23.161Z,0.00
2022-11-10T01:46:23.122Z,0.00
2022-11-10T01:47:23.124Z,0.00
2022-11-10T01:48:23.092Z,0.00
2022-11-10T01:49:23.115Z,0.00
2022-11-10T01:50:23.069Z,0.00
2022-11-10T01:51:23.067Z,0.00
2022-11-10T01:52:23.063Z,0.00
2022-11-10T01:53:23.376Z,0.00
2022-11-10T01:54:23.040Z,0.00
2022-11-10T01:55:23.090Z,0.00
2022-11-10T01:56:23.027Z,0.00
2022-11-10T01:57:23.016Z,0.00
2022-11-10T01:58:23.014Z,0.00
2022-11-10T01:59:23.012Z,0.00
2022-11-10T02:00:23.004Z,0.00
2022-11-10T02:01:23.040Z,0.00
2022-11-10T02:02:22.982Z,0.00
2022-11-10T02:03:23.388Z,0.00
2022-11-10T02:04:22.964Z,0.00
2022-11-10T02:05:22.986Z,0.00
2022-11-10T02:06:22.977Z,0.00
2022-11-10T02:07:22.964Z,0.00
2022-11-10T02:08:22.935Z,0.00
2022-11-10T02:09:22.913Z,0.00
2022-11-10T02:10:22.907Z,0.00
2022-11-10T02:11:22.915Z,0.00
2022-11-10T02:12:22.923Z,0.00
2022-11-10T02:13:23.397Z,0.00
2022-11-10T02:14:22.898Z,0.00
2022-11-10T02:15:22.877Z,0.00
2022-11-10T02:16:22.859Z,0.00
2022-11-10T02:17:22.852Z,0.00
2022-11-10T02:18:22.874Z,0.00
2022-11-10T02:19:22.841Z,0.00
2022-11-10T02:20:22.828Z,0.00
2022-11-10T02:21:22.825Z,0.00
2022-11-10T02:22:22.815Z,0.00
2022-11-10T02:23:23.007Z,0.00
2022-11-10T02:24:22.800Z,0.00
2022-11-10T02:25:22.800Z,0.00
2022-11-10T02:26:22.789Z,0.00
2022-11-10T02:27:22.771Z,0.00
2022-11-10T02:28:22.801Z,0.00
2022-11-10T02:29:22.776Z,0.00
2022-11-10T02:30:27.370Z,0.00
2022-11-10T02:31:23.731Z,0.00
2022-11-10T02:32:22.716Z,0.00
2022-11-10T02:33:23.169Z,0.00
2022-11-10T02:34:22.738Z,0.00
2022-11-10T02:35:22.722Z,0.00
2022-11-10T02:36:22.696Z,0.00
2022-11-10T02:37:22.699Z,0.00
2022-11-10T02:38:22.694Z,0.00
2022-11-10T02:39:22.710Z,0.00
2022-11-10T02:40:22.672Z,0.00
2022-11-10T02:41:22.644Z,0.00
2022-11-10T02:42:22.670Z,0.00
2022-11-10T02:43:23.016Z,0.00
2022-11-10T02:44:22.641Z,0.00
2022-11-10T02:45:22.631Z,0.00
2022-11-10T02:46:22.602Z,0.00
2022-11-10T02:47:22.595Z,0.00
2022-11-10T02:48:22.638Z,0.00
2022-11-10T02:49:22.596Z,0.00
2022-11-10T02:50:22.566Z,0.00
2022-11-10T02:51:22.566Z,0.00
2022-11-10T02:52:22.574Z,0.00
2022-11-10T02:53:22.863Z,0.00
2022-11-10T02:54:22.553Z,0.00
2022-11-10T02:55:22.535Z,0.00
2022-11-10T02:56:22.559Z,0.00
2022-11-10T02:57:22.538Z,0.00
2022-11-10T02:58:22.518Z,0.00
2022-11-10T02:59:22.527Z,0.00
2022-11-10T03:00:22.500Z,0.00
2022-11-10T03:01:22.532Z,0.00
2022-11-10T03:02:22.477Z,0.00
2022-11-10T03:03:22.764Z,0.00
2022-11-10T03:04:22.458Z,0.00
2022-11-10T03:05:22.434Z,0.00
2022-11-10T03:06:22.437Z,0.00
2022-11-10T03:07:22.421Z,0.00
2022-11-10T03:08:22.435Z,0.00
2022-11-10T03:09:22.451Z,0.00
2022-11-10T03:10:22.396Z,0.00
2022-11-10T03:11:22.391Z,0.00
2022-11-10T03:12:22.411Z,0.00
2022-11-10T03:13:22.703Z,0.00
2022-11-10T03:14:22.379Z,0.00
2022-11-10T03:15:22.356Z,0.00
2022-11-10T03:16:22.364Z,0.00
2022-11-10T03:17:22.330Z,0.00
2022-11-10T03:18:22.322Z,0.00
2022-11-10T03:19:22.372Z,0.00
2022-11-10T03:20:22.322Z,0.00
2022-11-10T03:21:22.303Z,0.00
2022-11-10T03:22:22.323Z,0.00
2022-11-10T03:23:22.569Z,0.00
2022-11-10T03:24:22.319Z,0.00
2022-11-10T03:25:22.290Z,0.00
2022-11-10T03:26:22.264Z,0.00
2022-11-10T03:27:22.257Z,0.00
2022-11-10T03:28:22.280Z,0.00
2022-11-10T03:29:22.235Z,0.00
2022-11-10T03:30:29.822Z,0.00
2022-11-10T03:31:22.210Z,0.00
2022-11-10T03:32:22.202Z,0.00
2022-11-10T03:33:22.488Z,0.00
2022-11-10T03:34:22.208Z,0.00
2022-11-10T03:35:22.179Z,0.00
2022-11-10T03:36:22.501Z,0.00
2022-11-10T03:37:22.153Z,0.00
2022-11-10T03:38:22.185Z,0.00
2022-11-10T03:39:22.146Z,0.00
2022-11-10T03:40:22.154Z,0.00
2022-11-10T03:41:22.151Z,0.00
2022-11-10T03:42:22.131Z,0.00
2022-11-10T03:43:22.544Z,0.00
2022-11-10T03:44:22.097Z,0.00
2022-11-10T03:45:22.096Z,0.00
2022-11-10T03:46:22.129Z,0.00
2022-11-10T03:47:22.088Z,0.00
2022-11-10T03:48:22.073Z,0.00
2022-11-10T03:49:22.129Z,0.00
2022-11-10T03:50:22.101Z,0.00
2022-11-10T03:51:22.031Z,0.00
2022-11-10T03:52:22.031Z,0.00
2022-11-10T03:53:22.462Z,0.00
2022-11-10T03:54:22.024Z,0.00
2022-11-10T03:55:22.010Z,0.00
2022-11-10T03:56:22.008Z,0.00
2022-11-10T03:57:21.993Z,0.00
2022-11-10T03:58:21.991Z,0.00
2022-11-10T03:59:22.004Z,0.00
2022-11-10T04:00:21.982Z,0.00
2022-11-10T04:01:21.990Z,0.00
2022-11-10T04:02:21.951Z,0.00
2022-11-10T04:03:22.260Z,0.00
2022-11-10T04:04:21.958Z,0.00
2022-11-10T04:05:21.910Z,0.00
2022-11-10T04:06:21.911Z,0.00
2022-11-10T04:07:21.907Z,0.00
2022-11-10T04:08:21.900Z,0.00
2022-11-10T04:09:21.917Z,0.00
2022-11-10T04:10:21.899Z,0.00
2022-11-10T04:11:21.864Z,0.00
2022-11-10T04:12:24.817Z,0.00
2022-11-10T04:13:22.215Z,0.00
2022-11-10T04:14:21.885Z,0.00
2022-11-10T04:15:21.841Z,0.00
2022-11-10T04:16:21.851Z,0.00
2022-11-10T04:17:21.812Z,0.00
2022-11-10T04:18:21.801Z,0.00
2022-11-10T04:19:21.810Z,0.00
2022-11-10T04:20:21.850Z,0.00
2022-11-10T04:21:21.800Z,0.00
2022-11-10T04:22:21.780Z,0.00
2022-11-10T04:23:22.187Z,0.00
2022-11-10T04:24:21.762Z,0.00
2022-11-10T04:25:21.750Z,0.00
2022-11-10T04:26:21.762Z,0.00
2022-11-10T04:27:21.731Z,0.00
2022-11-10T04:28:21.735Z,0.00
2022-11-10T04:29:21.711Z,0.00
2022-11-10T04:30:21.727Z,0.00
2022-11-10T04:31:21.690Z,0.00
2022-11-10T04:32:21.717Z,0.00
2022-11-10T04:33:21.978Z,0.00
2022-11-10T04:34:21.691Z,0.00
2022-11-10T04:35:21.673Z,0.00
2022-11-10T04:36:21.669Z,0.00
2022-11-10T04:37:21.720Z,0.00
2022-11-10T04:38:21.641Z,0.00
2022-11-10T04:39:21.657Z,0.00
2022-11-10T04:40:21.634Z,0.00
2022-11-10T04:41:21.615Z,0.00
2022-11-10T04:42:21.628Z,0.00
2022-11-10T04:43:22.023Z,0.00
2022-11-10T04:44:21.601Z,0.00
2022-11-10T04:45:21.575Z,0.00
2022-11-10T04:46:21.572Z,0.00
2022-11-10T04:47:21.560Z,0.00
2022-11-10T04:48:21.704Z,0.00
2022-11-10T04:49:21.557Z,0.00
2022-11-10T04:50:21.548Z,0.00
2022-11-10T04:51:21.596Z,0.00
2022-11-10T04:52:21.527Z,0.00
2022-11-10T04:53:21.756Z,0.00
2022-11-10T04:54:21.532Z,0.00
2022-11-10T04:55:21.497Z,0.00
2022-11-10T04:56:21.488Z,0.00
2022-11-10T04:57:21.485Z,0.00
2022-11-10T04:58:21.480Z,0.00
2022-11-10T04:59:21.524Z,0.00
2022-11-10T05:00:21.463Z,0.00
2022-11-10T05:01:21.507Z,0.00
2022-11-10T05:02:21.439Z,0.00
2022-11-10T05:03:21.867Z,0.00
2022-11-10T05:04:21.539Z,0.00
2022-11-10T05:05:21.445Z,0.00
2022-11-10T05:06:21.409Z,0.00
2022-11-10T05:07:21.419Z,0.00
2022-11-10T05:08:21.394Z,0.00
2022-11-10T05:09:21.397Z,0.00
2022-11-10T05:10:21.388Z,0.00
2022-11-10T05:11:21.379Z,0.00
2022-11-10T05:12:22.517Z,0.00
2022-11-10T05:13:21.827Z,0.00
2022-11-10T05:14:21.345Z,0.00
2022-11-10T05:15:21.338Z,0.00
2022-11-10T05:16:21.339Z,0.00
2022-11-10T05:17:21.338Z,0.00
2022-11-10T05:18:21.304Z,0.00
2022-11-10T05:19:21.323Z,0.00
2022-11-10T05:20:21.319Z,0.00
2022-11-10T05:21:21.281Z,0.00
2022-11-10T05:22:21.283Z,0.00
2022-11-10T05:23:21.635Z,0.00
2022-11-10T05:24:21.248Z,0.00
2022-11-10T05:25:21.315Z,0.00
2022-11-10T05:26:21.233Z,0.00
2022-11-10T05:27:21.222Z,0.00
2022-11-10T05:28:21.220Z,0.00
2022-11-10T05:29:21.227Z,0.00
2022-11-10T05:30:21.225Z,0.00
2022-11-10T05:31:21.195Z,0.00
2022-11-10T05:32:21.184Z,0.00
2022-11-10T05:33:21.497Z,0.00
2022-11-10T05:34:21.191Z,0.00
2022-11-10T05:35:21.686Z,0.00
2022-11-10T05:36:21.152Z,0.00
2022-11-10T05:37:21.131Z,0.00
2022-11-10T05:38:21.202Z,0.00
2022-11-10T05:39:21.125Z,0.00
2022-11-10T05:40:21.108Z,0.00
2022-11-10T05:41:21.115Z,0.00
2022-11-10T05:42:21.093Z,0.00
2022-11-10T05:43:21.628Z,0.00
2022-11-10T05:44:21.101Z,0.00
2022-11-10T05:45:21.075Z,0.00
2022-11-10T05:46:21.096Z,1.00
2022-11-10T05:47:21.062Z,1.00
2022-11-10T05:48:21.693Z,1.00
2022-11-10T05:49:21.061Z,1.00
2022-11-10T05:50:21.046Z,1.00
2022-11-10T05:51:21.027Z,1.00
2022-11-10T05:52:21.232Z,0.00
2022-11-10T05:53:21.265Z,0.00
2022-11-10T05:54:21.013Z,0.00
2022-11-10T05:55:20.982Z,0.00
2022-11-10T05:56:20.998Z,1.00
2022-11-10T05:57:21.093Z,2.00
2022-11-10T05:58:20.967Z,2.00
2022-11-10T05:59:20.976Z,3.00
2022-11-10T06:00:20.947Z,4.00
2022-11-10T06:01:21.051Z,5.00
2022-11-10T06:02:20.940Z,5.00
2022-11-10T06:03:21.405Z,7.00
2022-11-10T06:04:21.331Z,7.00
2022-11-10T06:05:21.110Z,8.00
2022-11-10T06:06:22.121Z,10.00
2022-11-10T06:07:21.100Z,10.00
2022-11-10T06:08:20.925Z,12.00
2022-11-10T06:09:20.859Z,13.00
2022-11-10T06:10:20.913Z,13.00
2022-11-10T06:11:20.868Z,13.00
2022-11-10T06:12:20.856Z,12.00
2022-11-10T06:13:21.242Z,12.00
2022-11-10T06:14:20.954Z,14.00
2022-11-10T06:15:20.814Z,15.00
2022-11-10T06:16:20.825Z,21.00
2022-11-10T06:17:20.833Z,25.00
2022-11-10T06:18:20.804Z,35.00
2022-11-10T06:19:20.791Z,44.00
2022-11-10T06:20:20.779Z,52.00
2022-11-10T06:21:20.764Z,61.00
2022-11-10T06:22:20.758Z,72.00
2022-11-10T06:23:21.329Z,87.00
2022-11-10T06:24:20.960Z,106.00
2022-11-10T06:25:20.881Z,127.00
2022-11-10T06:26:20.731Z,130.00
2022-11-10T06:27:20.745Z,131.00
2022-11-10T06:28:20.743Z,127.00
2022-11-10T06:29:26.455Z,126.00
2022-11-10T06:30:21.684Z,131.00
2022-11-10T06:31:20.723Z,139.00
2022-11-10T06:32:20.676Z,157.00
2022-11-10T06:33:21.054Z,183.00
2022-11-10T06:34:20.748Z,194.00
2022-11-10T06:35:20.675Z,206.00
2022-11-10T06:36:20.636Z,226.00
2022-11-10T06:37:20.662Z,254.00
2022-11-10T06:38:20.620Z,284.00
2022-11-10T06:39:20.636Z,329.00
2022-11-10T06:40:20.609Z,375.00
2022-11-10T06:41:25.160Z,386.00
2022-11-10T06:42:20.615Z,410.00
2022-11-10T06:43:21.204Z,460.00
2022-11-10T06:44:20.689Z,516.00
2022-11-10T06:45:20.609Z,570.00
2022-11-10T06:46:20.544Z,607.00
2022-11-10T06:47:20.578Z,651.00
2022-11-10T06:48:20.570Z,642.00
2022-11-10T06:49:20.558Z,612.00
2022-11-10T06:50:20.515Z,560.00
2022-11-10T06:51:20.536Z,571.00
2022-11-10T06:52:20.511Z,676.00
2022-11-10T06:53:25.797Z,854.00
2022-11-10T06:54:21.487Z,945.00
2022-11-10T06:55:20.468Z,941.00
2022-11-10T06:56:20.491Z,919.00
2022-11-10T06:57:20.525Z,946.00
2022-11-10T06:58:20.454Z,943.00
2022-11-10T06:59:20.448Z,930.00
2022-11-10T07:00:20.426Z,794.00
2022-11-10T07:01:22.687Z,725.00
2022-11-10T07:02:20.420Z,756.00
2022-11-10T07:03:20.796Z,822.00
2022-11-10T07:04:20.954Z,874.00
2022-11-10T07:05:20.372Z,913.00
2022-11-10T07:06:20.370Z,975.00
2022-11-10T07:07:20.382Z,1068.00
2022-11-10T07:08:20.355Z,1156.00
2022-11-10T07:09:20.353Z,1237.00
2022-11-10T07:10:20.370Z,1275.00
2022-11-10T07:11:20.333Z,1273.00
2022-11-10T07:12:20.345Z,1228.00
2022-11-10T07:13:20.707Z,1133.00
2022-11-10T07:14:20.308Z,1067.00
2022-11-10T07:15:20.294Z,954.00
2022-11-10T07:16:24.359Z,778.00
2022-11-10T07:17:20.285Z,586.00
2022-11-10T07:18:20.292Z,454.00
2022-11-10T07:19:20.268Z,377.00
2022-11-10T07:20:20.259Z,315.00
2022-11-10T07:21:20.249Z,269.00
2022-11-10T07:22:20.244Z,244.00
2022-11-10T07:23:20.481Z,226.00
2022-11-10T07:24:20.227Z,221.00
2022-11-10T07:25:20.215Z,226.00
2022-11-10T07:26:20.215Z,236.00
2022-11-10T07:27:20.191Z,256.00
2022-11-10T07:28:23.434Z,268.00
2022-11-10T07:29:21.179Z,291.00
2022-11-10T07:30:20.183Z,311.00
2022-11-10T07:31:20.183Z,332.00
2022-11-10T07:32:20.190Z,345.00
2022-11-10T07:33:20.561Z,379.00
2022-11-10T07:34:20.137Z,430.00
2022-11-10T07:35:20.129Z,462.00
2022-11-10T07:36:20.118Z,478.00
2022-11-10T07:37:20.367Z,484.00
2022-11-10T07:38:20.144Z,515.00
2022-11-10T07:39:20.084Z,531.00
2022-11-10T07:40:20.073Z,549.00
2022-11-10T07:41:20.071Z,554.00
2022-11-10T07:42:20.083Z,592.00
2022-11-10T07:43:20.500Z,619.00
2022-11-10T07:44:20.276Z,649.00
2022-11-10T07:45:20.033Z,705.00
2022-11-10T07:46:20.085Z,739.00
2022-11-10T07:47:20.039Z,807.00
2022-11-10T07:48:20.015Z,1152.00
2022-11-10T07:49:20.009Z,2127.00
2022-11-10T07:50:20.039Z,2998.00
2022-11-10T07:51:20.017Z,3606.00
2022-11-10T07:52:19.978Z,3478.00
2022-11-10T07:53:20.182Z,3096.00
2022-11-10T07:54:19.983Z,2961.00
2022-11-10T07:55:19.956Z,3274.00
2022-11-10T07:56:19.935Z,4142.00
2022-11-10T07:57:19.960Z,4189.00
2022-11-10T07:58:19.950Z,4012.00
2022-11-10T07:59:19.920Z,4131.00
2022-11-10T08:00:19.933Z,4426.00
2022-11-10T08:01:19.968Z,4475.00
2022-11-10T08:02:19.969Z,5123.00
2022-11-10T08:03:20.030Z,5795.00
2022-11-10T08:04:19.878Z,8007.00
2022-11-10T08:05:19.862Z,9022.00
2022-11-10T08:06:19.885Z,19343.00
2022-11-10T08:07:20.045Z,18142.00
2022-11-10T08:08:19.845Z,17345.00
2022-11-10T08:09:19.861Z,8739.00
2022-11-10T08:10:19.818Z,11568.00
2022-11-10T08:11:19.811Z,16134.00
2022-11-10T08:12:19.832Z,11925.00
2022-11-10T08:13:20.233Z,11929.00
2022-11-10T08:14:19.820Z,22861.00
2022-11-10T08:15:19.804Z,6443.00
2022-11-10T08:16:19.777Z,8357.00
2022-11-10T08:17:19.768Z,8607.00
2022-11-10T08:18:19.770Z,17300.00
2022-11-10T08:19:19.767Z,9891.00
2022-11-10T08:20:19.766Z,7450.00
2022-11-10T08:21:19.764Z,22657.00
2022-11-10T08:22:19.743Z,13150.00
2022-11-10T08:23:20.094Z,13413.00
2022-11-10T08:24:19.716Z,8489.00
2022-11-10T08:25:19.779Z,7665.00
2022-11-10T08:26:19.858Z,6561.00
2022-11-10T08:27:19.691Z,8364.00
2022-11-10T08:28:19.674Z,6133.00
2022-11-10T08:29:19.721Z,5997.00
2022-11-10T08:30:19.688Z,5698.00
2022-11-10T08:31:19.665Z,5050.00
2022-11-10T08:32:19.643Z,5215.00
2022-11-10T08:33:20.001Z,6649.00
2022-11-10T08:34:19.686Z,10319.00
2022-11-10T08:35:19.654Z,6495.00
2022-11-10T08:36:19.625Z,9259.00
2022-11-10T08:37:19.612Z,9087.00
2022-11-10T08:38:19.608Z,8673.00
2022-11-10T08:39:37.703Z,5413.00
2022-11-10T08:40:20.684Z,6015.00
2022-11-10T08:41:19.645Z,10091.00
2022-11-10T08:42:19.613Z,62571.00
2022-11-10T08:43:19.941Z,31244.00
2022-11-10T08:44:21.008Z,62439.00
2022-11-10T08:45:19.745Z,62394.00
2022-11-10T08:46:19.536Z,62913.00
2022-11-10T08:47:19.567Z,62473.00
2022-11-10T08:48:19.520Z,62880.00
2022-11-10T08:49:19.518Z,62589.00
2022-11-10T08:50:19.527Z,25851.00
2022-11-10T08:51:19.494Z,11534.00
2022-11-10T08:52:19.506Z,63126.00
2022-11-10T08:53:19.820Z,62395.00
2022-11-10T08:54:19.564Z,62587.00
2022-11-10T08:55:19.471Z,10892.00
2022-11-10T08:56:19.476Z,10144.00
2022-11-10T08:57:19.475Z,7641.00
2022-11-10T08:58:20.236Z,6426.00
2022-11-10T08:59:19.437Z,5256.00
2022-11-10T09:00:19.425Z,5499.00
2022-11-10T09:01:19.483Z,5766.00
2022-11-10T09:02:19.408Z,4977.00
2022-11-10T09:03:19.549Z,4057.00
2022-11-10T09:04:19.472Z,4710.00
2022-11-10T09:05:19.425Z,4178.00
2022-11-10T09:06:19.377Z,3546.00
2022-11-10T09:07:19.399Z,3704.00
2022-11-10T09:08:19.347Z,4143.00
2022-11-10T09:09:19.369Z,3690.00
2022-11-10T09:10:19.414Z,3641.00
2022-11-10T09:11:19.339Z,3798.00
2022-11-10T09:12:19.430Z,4216.00
2022-11-10T09:13:22.422Z,3580.00
2022-11-10T09:14:20.308Z,3542.00
2022-11-10T09:15:19.304Z,3444.00
2022-11-10T09:16:19.309Z,3354.00
2022-11-10T09:17:19.288Z,3925.00
2022-11-10T09:18:19.291Z,3954.00
2022-11-10T09:19:20.230Z,3011.00
2022-11-10T09:20:19.354Z,2372.00
2022-11-10T09:21:19.256Z,2020.00
2022-11-10T09:22:19.236Z,1837.00
2022-11-10T09:23:19.385Z,1731.00
2022-11-10T09:24:19.251Z,1661.00
2022-11-10T09:25:19.217Z,1565.00
2022-11-10T09:26:19.231Z,1460.00
2022-11-10T09:27:19.285Z,1374.00
2022-11-10T09:28:19.227Z,1281.00
2022-11-10T09:29:19.235Z,1193.00
2022-11-10T09:30:19.181Z,1100.00
2022-11-10T09:31:19.175Z,1115.00
2022-11-10T09:32:19.200Z,1159.00
2022-11-10T09:33:19.345Z,1228.00
2022-11-10T09:34:19.149Z,1255.00
2022-11-10T09:35:19.151Z,1272.00
2022-11-10T09:36:19.150Z,1289.00
2022-11-10T09:37:19.131Z,1342.00
2022-11-10T09:38:19.327Z,1415.00
2022-11-10T09:39:19.121Z,1542.00
2022-11-10T09:40:19.100Z,1706.00
2022-11-10T09:41:19.094Z,1833.00
2022-11-10T09:42:19.123Z,1776.00
2022-11-10T09:43:19.314Z,1412.00
2022-11-10T09:44:19.080Z,1244.00
2022-11-10T09:45:19.064Z,1245.00
2022-11-10T09:46:19.058Z,1480.00
2022-11-10T09:47:42.516Z,1486.00
2022-11-10T09:48:20.338Z,1417.00
2022-11-10T09:49:19.049Z,1601.00
2022-11-10T09:50:19.156Z,1761.00
2022-11-10T09:51:19.028Z,1981.00
2022-11-10T09:52:19.067Z,2482.00
2022-11-10T09:53:19.082Z,2707.00
2022-11-10T09:54:18.993Z,2666.00
2022-11-10T09:55:18.991Z,2709.00
2022-11-10T09:56:19.015Z,3115.00
2022-11-10T09:57:18.999Z,3341.00
2022-11-10T09:58:19.148Z,3439.00
2022-11-10T09:59:18.954Z,4122.00
2022-11-10T10:00:18.972Z,7560.00
2022-11-10T10:01:19.068Z,11382.00
2022-11-10T10:02:18.956Z,19548.00
2022-11-10T10:03:19.277Z,11265.00
2022-11-10T10:04:18.919Z,10743.00
2022-11-10T10:05:18.911Z,7189.00
2022-11-10T10:06:18.985Z,8990.00
2022-11-10T10:07:18.948Z,11163.00
2022-11-10T10:08:18.955Z,6252.00
2022-11-10T10:09:18.882Z,8738.00
2022-11-10T10:10:18.879Z,6829.00
2022-11-10T10:11:18.894Z,6467.00
2022-11-10T10:12:18.857Z,6611.00
2022-11-10T10:13:18.848Z,8737.00
2022-11-10T10:14:18.905Z,13252.00
2022-11-10T10:15:18.831Z,6883.00
2022-11-10T10:16:18.820Z,8619.00
2022-11-10T10:17:18.844Z,5952.00
2022-11-10T10:18:18.879Z,27804.00
2022-11-10T10:19:18.792Z,9859.00
2022-11-10T10:20:18.807Z,12668.00
2022-11-10T10:21:18.783Z,8589.00
2022-11-10T10:22:18.811Z,9780.00
2022-11-10T10:23:18.872Z,7367.00
2022-11-10T10:24:22.119Z,5858.00
2022-11-10T10:25:18.750Z,5697.00
2022-11-10T10:26:18.734Z,5092.00
2022-11-10T10:27:18.735Z,6060.00
2022-11-10T10:28:19.032Z,4871.00
2022-11-10T10:29:18.711Z,5464.00
2022-11-10T10:30:18.782Z,7019.00
2022-11-10T10:31:18.698Z,8555.00
2022-11-10T10:32:18.699Z,6084.00
2022-11-10T10:33:18.674Z,7992.00
2022-11-10T10:34:18.701Z,4152.00
2022-11-10T10:35:18.670Z,4475.00
2022-11-10T10:36:18.668Z,4282.00
2022-11-10T10:37:18.675Z,4165.00
2022-11-10T10:38:18.873Z,3565.00
2022-11-10T10:39:18.651Z,4960.00
2022-11-10T10:40:26.143Z,4447.00
2022-11-10T10:41:23.625Z,4831.00
2022-11-10T10:42:19.602Z,4418.00
2022-11-10T10:43:18.600Z,11828.00
2022-11-10T10:44:18.616Z,6861.00
2022-11-10T10:45:18.739Z,6283.00
2022-11-10T10:46:18.590Z,24862.00
2022-11-10T10:47:18.670Z,6596.00
2022-11-10T10:48:18.656Z,4605.00
2022-11-10T10:49:33.181Z,10145.00
2022-11-10T10:50:19.547Z,9674.00
2022-11-10T10:51:18.551Z,8585.00
2022-11-10T10:52:18.524Z,27099.00
2022-11-10T10:53:18.521Z,6291.00
2022-11-10T10:54:18.538Z,4989.00
2022-11-10T10:55:18.514Z,8495.00
2022-11-10T10:56:18.483Z,6604.00
2022-11-10T10:57:18.491Z,5710.00
2022-11-10T10:58:18.513Z,7238.00
2022-11-10T10:59:18.472Z,5664.00
2022-11-10T11:00:18.514Z,5070.00
2022-11-10T11:01:18.555Z,5385.00
2022-11-10T11:02:18.442Z,5743.00
2022-11-10T11:03:18.446Z,6465.00
2022-11-10T11:04:18.471Z,5655.00
2022-11-10T11:05:18.423Z,5978.00
2022-11-10T11:06:18.408Z,5848.00
2022-11-10T11:07:19.323Z,4686.00
2022-11-10T11:08:18.478Z,4355.00
2022-11-10T11:09:18.404Z,4797.00
2022-11-10T11:10:18.479Z,4515.00
2022-11-10T11:11:18.629Z,4073.00
2022-11-10T11:12:18.361Z,3084.00
2022-11-10T11:13:18.349Z,2580.00
2022-11-10T11:14:18.365Z,2825.00
2022-11-10T11:15:18.374Z,2965.00
2022-11-10T11:16:18.327Z,2555.00
2022-11-10T11:17:18.463Z,2168.00
2022-11-10T11:18:18.311Z,2015.00
2022-11-10T11:19:18.360Z,2117.00
2022-11-10T11:20:18.364Z,2803.00
2022-11-10T11:21:18.386Z,3265.00
2022-11-10T11:22:18.324Z,3941.00
2022-11-10T11:23:18.315Z,3890.00
2022-11-10T11:24:18.256Z,3905.00
2022-11-10T11:25:18.245Z,3331.00
2022-11-10T11:26:18.232Z,2847.00
2022-11-10T11:27:18.255Z,2293.00
2022-11-10T11:28:18.228Z,2235.00
2022-11-10T11:29:18.232Z,2618.00
2022-11-10T11:30:18.250Z,2880.00
2022-11-10T11:31:18.208Z,2980.00
2022-11-10T11:32:18.196Z,3058.00
2022-11-10T11:33:18.219Z,3239.00
2022-11-10T11:34:18.180Z,4843.00
2022-11-10T11:35:18.180Z,2913.00
2022-11-10T11:36:18.180Z,2684.00
2022-11-10T11:37:19.690Z,2440.00
2022-11-10T11:38:18.191Z,2286.00
2022-11-10T11:39:18.134Z,2227.00
2022-11-10T11:40:18.148Z,1893.00
2022-11-10T11:41:18.165Z,1624.00
2022-11-10T11:42:18.126Z,1419.00
2022-11-10T11:43:18.107Z,1347.00
2022-11-10T11:44:18.102Z,1336.00
2022-11-10T11:45:18.120Z,1352.00
2022-11-10T11:46:18.116Z,1365.00
2022-11-10T11:47:18.083Z,1351.00
2022-11-10T11:48:18.067Z,1321.00
2022-11-10T11:49:18.062Z,1330.00
2022-11-10T11:50:18.048Z,1401.00
2022-11-10T11:51:18.056Z,1523.00
2022-11-10T11:52:18.037Z,1677.00
2022-11-10T11:53:18.036Z,1758.00
2022-11-10T11:54:18.020Z,1890.00
2022-11-10T11:55:18.033Z,2159.00
2022-11-10T11:56:18.032Z,2434.00
2022-11-10T11:57:17.991Z,2700.00
2022-11-10T11:58:17.996Z,3905.00
2022-11-10T11:59:17.975Z,10006.00
2022-11-10T12:00:17.987Z,7376.00
2022-11-10T12:01:18.049Z,4885.00
2022-11-10T12:02:18.029Z,4608.00
2022-11-10T12:03:17.945Z,3633.00
2022-11-10T12:04:17.944Z,2824.00
2022-11-10T12:05:18.072Z,2244.00
2022-11-10T12:06:17.927Z,1993.00
2022-11-10T12:07:17.997Z,1879.00
2022-11-10T12:08:17.993Z,1790.00
2022-11-10T12:09:17.935Z,1736.00
2022-11-10T12:10:17.949Z,1687.00
2022-11-10T12:11:17.913Z,1620.00
2022-11-10T12:12:17.954Z,1554.00
2022-11-10T12:13:18.834Z,1523.00
2022-11-10T12:14:17.861Z,1490.00
2022-11-10T12:15:17.995Z,1451.00
2022-11-10T12:16:17.913Z,1465.00
2022-11-10T12:17:17.891Z,1559.00
2022-11-10T12:18:18.596Z,1606.00
2022-11-10T12:19:17.927Z,1519.00
2022-11-10T12:20:17.822Z,1416.00
2022-11-10T12:21:17.834Z,1439.00
2022-11-10T12:22:18.525Z,1457.00
2022-11-10T12:23:17.782Z,1422.00
2022-11-10T12:24:17.947Z,1383.00
2022-11-10T12:25:17.850Z,1343.00
2022-11-10T12:26:17.806Z,1385.00
2022-11-10T12:30:11.846Z,1451.00
2022-11-10T12:31:11.843Z,1538.00
2022-11-10T12:32:11.807Z,1630.00
2022-11-10T12:33:11.797Z,1554.00
2022-11-10T12:34:11.790Z,1515.00
2022-11-10T12:35:11.781Z,1510.00
2022-11-10T12:36:11.780Z,1621.00
2022-11-10T12:37:11.856Z,1641.00
2022-11-10T12:38:11.780Z,1607.00
2022-11-10T12:39:11.862Z,1523.00
2022-11-10T12:40:11.788Z,1520.00
2022-11-10T12:41:11.755Z,1496.00
2022-11-10T12:42:11.939Z,1412.00
2022-11-10T12:43:11.750Z,1354.00
2022-11-10T12:44:11.707Z,1297.00